sensor_id;sensor_type;location;lat;lon;timestamp;pressure;altitude;pressure_sealevel;temperature;humidity
37852;BME280;23691;52.486;4.650;2023-07-13T00:00:55;101305.72;;;21.19;63.00
37852;BME280;23691;52.486;4.650;2023-07-13T00:03:21;101304.66;;;21.20;63.14
37852;BME280;23691;52.486;4.650;2023-07-13T00:05:47;101300.66;;;21.22;63.35
37852;BME280;23691;52.486;4.650;2023-07-13T00:08:22;101295.22;;;21.22;63.01
37852;BME280;23691;52.486;4.650;2023-07-13T00:10:52;101300.81;;;21.28;63.28
37852;BME280;23691;52.486;4.650;2023-07-13T00:13:19;101309.59;;;21.30;63.37
37852;BME280;23691;52.486;4.650;2023-07-13T00:15:45;101300.97;;;21.33;63.43
37852;BME280;23691;52.486;4.650;2023-07-13T00:18:14;101320.66;;;21.35;63.28
37852;BME280;23691;52.486;4.650;2023-07-13T00:20:39;101315.88;;;21.30;63.12
37852;BME280;23691;52.486;4.650;2023-07-13T00:23:09;101309.00;;;21.28;63.05
37852;BME280;23691;52.486;4.650;2023-07-13T00:25:34;101307.25;;;21.33;62.46
37852;BME280;23691;52.486;4.650;2023-07-13T00:28:00;101314.38;;;21.34;62.18
37852;BME280;23691;52.486;4.650;2023-07-13T00:30:25;101310.81;;;21.34;61.20
37852;BME280;23691;52.486;4.650;2023-07-13T00:32:51;101313.97;;;21.31;60.19
37852;BME280;23691;52.486;4.650;2023-07-13T00:35:16;101313.66;;;21.20;59.68
37852;BME280;23691;52.486;4.650;2023-07-13T00:37:42;101312.00;;;21.19;59.60
37852;BME280;23691;52.486;4.650;2023-07-13T00:40:11;101309.94;;;21.15;59.16
37852;BME280;23691;52.486;4.650;2023-07-13T00:42:39;101308.28;;;21.14;59.14
37852;BME280;23691;52.486;4.650;2023-07-13T00:47:50;101314.84;;;21.06;58.83
37852;BME280;23691;52.486;4.650;2023-07-13T00:50:16;101315.06;;;21.05;58.38
37852;BME280;23691;52.486;4.650;2023-07-13T00:52:46;101312.34;;;21.05;58.59
37852;BME280;23691;52.486;4.650;2023-07-13T00:55:13;101321.78;;;21.02;58.33
37852;BME280;23691;52.486;4.650;2023-07-13T00:57:40;101317.19;;;21.02;58.28
37852;BME280;23691;52.486;4.650;2023-07-13T01:00:07;101310.28;;;21.00;58.46
37852;BME280;23691;52.486;4.650;2023-07-13T01:02:36;101314.66;;;21.01;58.63
37852;BME280;23691;52.486;4.650;2023-07-13T01:05:13;101308.41;;;21.00;58.63
37852;BME280;23691;52.486;4.650;2023-07-13T01:07:44;101308.84;;;20.97;58.84
37852;BME280;23691;52.486;4.650;2023-07-13T01:10:10;101302.78;;;20.95;59.04
37852;BME280;23691;52.486;4.650;2023-07-13T01:12:37;101303.00;;;20.94;59.36
37852;BME280;23691;52.486;4.650;2023-07-13T01:15:03;101314.72;;;20.94;59.26
37852;BME280;23691;52.486;4.650;2023-07-13T01:17:31;101305.97;;;20.92;59.24
37852;BME280;23691;52.486;4.650;2023-07-13T01:19:58;101310.78;;;20.90;59.19
37852;BME280;23691;52.486;4.650;2023-07-13T01:22:24;101308.53;;;20.87;59.12
37852;BME280;23691;52.486;4.650;2023-07-13T01:24:51;101308.94;;;20.84;59.15
37852;BME280;23691;52.486;4.650;2023-07-13T01:27:23;101310.38;;;20.87;58.90
37852;BME280;23691;52.486;4.650;2023-07-13T01:29:53;101305.19;;;20.85;58.58
37852;BME280;23691;52.486;4.650;2023-07-13T01:32:29;101316.28;;;20.84;58.58
37852;BME280;23691;52.486;4.650;2023-07-13T01:34:56;101316.47;;;20.82;58.57
37852;BME280;23691;52.486;4.650;2023-07-13T01:37:26;101318.63;;;20.80;58.87
37852;BME280;23691;52.486;4.650;2023-07-13T01:39:52;101303.78;;;20.76;58.52
37852;BME280;23691;52.486;4.650;2023-07-13T01:42:18;101302.56;;;20.72;58.83
37852;BME280;23691;52.486;4.650;2023-07-13T01:44:44;101306.13;;;20.72;59.23
37852;BME280;23691;52.486;4.650;2023-07-13T01:47:10;101307.38;;;20.70;59.12
37852;BME280;23691;52.486;4.650;2023-07-13T01:49:35;101309.06;;;20.71;59.34
37852;BME280;23691;52.486;4.650;2023-07-13T01:52:03;101314.69;;;20.69;59.68
37852;BME280;23691;52.486;4.650;2023-07-13T01:54:28;101325.81;;;20.68;59.68
37852;BME280;23691;52.486;4.650;2023-07-13T01:56:54;101320.59;;;20.66;59.70
37852;BME280;23691;52.486;4.650;2023-07-13T01:59:19;101315.16;;;20.66;59.95
37852;BME280;23691;52.486;4.650;2023-07-13T02:01:47;101320.78;;;20.65;60.06
37852;BME280;23691;52.486;4.650;2023-07-13T02:04:16;101322.94;;;20.63;59.90
37852;BME280;23691;52.486;4.650;2023-07-13T02:06:45;101327.28;;;20.64;60.23
37852;BME280;23691;52.486;4.650;2023-07-13T02:09:14;101325.84;;;20.61;60.04
37852;BME280;23691;52.486;4.650;2023-07-13T02:11:39;101327.50;;;20.62;60.11
37852;BME280;23691;52.486;4.650;2023-07-13T02:14:05;101328.56;;;20.61;60.50
37852;BME280;23691;52.486;4.650;2023-07-13T02:16:31;101331.50;;;20.59;60.37
37852;BME280;23691;52.486;4.650;2023-07-13T02:18:57;101335.91;;;20.61;60.52
37852;BME280;23691;52.486;4.650;2023-07-13T02:21:30;101338.81;;;20.59;60.50
37852;BME280;23691;52.486;4.650;2023-07-13T02:23:55;101338.44;;;20.55;60.50
37852;BME280;23691;52.486;4.650;2023-07-13T02:26:23;101337.59;;;20.55;60.46
37852;BME280;23691;52.486;4.650;2023-07-13T02:28:54;101333.63;;;20.51;60.63
37852;BME280;23691;52.486;4.650;2023-07-13T02:31:20;101337.16;;;20.51;60.66
37852;BME280;23691;52.486;4.650;2023-07-13T02:33:46;101339.69;;;20.53;60.89
37852;BME280;23691;52.486;4.650;2023-07-13T02:36:14;101350.31;;;20.54;60.90
37852;BME280;23691;52.486;4.650;2023-07-13T02:38:42;101340.50;;;20.53;60.55
37852;BME280;23691;52.486;4.650;2023-07-13T02:41:08;101349.06;;;20.57;60.76
37852;BME280;23691;52.486;4.650;2023-07-13T02:43:36;101340.09;;;20.56;60.71
37852;BME280;23691;52.486;4.650;2023-07-13T02:46:02;101352.63;;;20.57;60.63
37852;BME280;23691;52.486;4.650;2023-07-13T02:48:33;101343.63;;;20.57;60.29
37852;BME280;23691;52.486;4.650;2023-07-13T02:51:15;101344.06;;;20.61;60.41
37852;BME280;23691;52.486;4.650;2023-07-13T02:53:41;101335.06;;;20.53;60.34
37852;BME280;23691;52.486;4.650;2023-07-13T02:56:06;101343.22;;;20.53;60.40
37852;BME280;23691;52.486;4.650;2023-07-13T02:58:37;101347.59;;;20.54;60.28
37852;BME280;23691;52.486;4.650;2023-07-13T03:01:09;101346.78;;;20.54;60.50
37852;BME280;23691;52.486;4.650;2023-07-13T03:03:48;101341.78;;;20.51;60.91
37852;BME280;23691;52.486;4.650;2023-07-13T03:06:14;101348.50;;;20.48;61.01
37852;BME280;23691;52.486;4.650;2023-07-13T03:08:40;101351.19;;;20.48;60.81
37852;BME280;23691;52.486;4.650;2023-07-13T03:11:15;101349.69;;;20.52;60.91
37852;BME280;23691;52.486;4.650;2023-07-13T03:13:42;101350.56;;;20.53;60.92
37852;BME280;23691;52.486;4.650;2023-07-13T03:16:08;101351.38;;;20.53;60.93
37852;BME280;23691;52.486;4.650;2023-07-13T03:18:37;101352.41;;;20.52;60.86
37852;BME280;23691;52.486;4.650;2023-07-13T03:21:12;101348.47;;;20.55;61.26
37852;BME280;23691;52.486;4.650;2023-07-13T03:23:40;101352.41;;;20.52;61.49
37852;BME280;23691;52.486;4.650;2023-07-13T03:26:16;101350.56;;;20.53;61.70
37852;BME280;23691;52.486;4.650;2023-07-13T03:28:42;101348.66;;;20.53;61.76
37852;BME280;23691;52.486;4.650;2023-07-13T03:31:21;101353.91;;;20.55;61.85
37852;BME280;23691;52.486;4.650;2023-07-13T03:33:52;101354.94;;;20.54;61.99
37852;BME280;23691;52.486;4.650;2023-07-13T03:36:20;101361.44;;;20.53;61.95
37852;BME280;23691;52.486;4.650;2023-07-13T03:38:48;101357.84;;;20.52;62.09
37852;BME280;23691;52.486;4.650;2023-07-13T03:41:16;101352.66;;;20.51;62.37
37852;BME280;23691;52.486;4.650;2023-07-13T03:43:42;101349.50;;;20.54;62.07
37852;BME280;23691;52.486;4.650;2023-07-13T03:46:11;101352.63;;;20.57;62.26
37852;BME280;23691;52.486;4.650;2023-07-13T03:48:37;101362.47;;;20.58;62.29
37852;BME280;23691;52.486;4.650;2023-07-13T03:51:02;101352.03;;;20.55;62.31
37852;BME280;23691;52.486;4.650;2023-07-13T03:53:30;101356.19;;;20.58;61.97
37852;BME280;23691;52.486;4.650;2023-07-13T03:55:56;101358.47;;;20.54;62.14
37852;BME280;23691;52.486;4.650;2023-07-13T03:58:30;101369.34;;;20.61;61.91
37852;BME280;23691;52.486;4.650;2023-07-13T04:00:56;101366.63;;;20.61;62.01
37852;BME280;23691;52.486;4.650;2023-07-13T04:03:25;101360.97;;;20.63;62.00
37852;BME280;23691;52.486;4.650;2023-07-13T04:05:54;101358.66;;;20.66;61.67
37852;BME280;23691;52.486;4.650;2023-07-13T04:08:30;101362.19;;;20.67;61.94
37852;BME280;23691;52.486;4.650;2023-07-13T04:11:04;101358.00;;;20.71;61.88
37852;BME280;23691;52.486;4.650;2023-07-13T04:13:30;101361.72;;;20.76;61.80
37852;BME280;23691;52.486;4.650;2023-07-13T04:15:58;101368.84;;;20.77;62.00
37852;BME280;23691;52.486;4.650;2023-07-13T04:18:23;101369.25;;;20.74;62.21
37852;BME280;23691;52.486;4.650;2023-07-13T04:20:50;101367.59;;;20.73;62.00
37852;BME280;23691;52.486;4.650;2023-07-13T04:23:17;101361.50;;;20.78;61.87
37852;BME280;23691;52.486;4.650;2023-07-13T04:25:46;101374.44;;;20.83;61.91
37852;BME280;23691;52.486;4.650;2023-07-13T04:28:18;101376.94;;;20.84;62.03
37852;BME280;23691;52.486;4.650;2023-07-13T04:30:43;101372.34;;;20.85;61.79
37852;BME280;23691;52.486;4.650;2023-07-13T04:33:09;101377.16;;;20.83;61.91
37852;BME280;23691;52.486;4.650;2023-07-13T04:35:38;101378.81;;;20.84;61.57
37852;BME280;23691;52.486;4.650;2023-07-13T04:38:03;101380.09;;;20.81;61.96
37852;BME280;23691;52.486;4.650;2023-07-13T04:40:30;101378.00;;;20.83;62.08
37852;BME280;23691;52.486;4.650;2023-07-13T04:42:55;101378.00;;;20.83;61.80
37852;BME280;23691;52.486;4.650;2023-07-13T04:45:22;101389.88;;;20.89;61.78
37852;BME280;23691;52.486;4.650;2023-07-13T04:47:54;101390.69;;;20.89;61.65
37852;BME280;23691;52.486;4.650;2023-07-13T04:50:23;101386.13;;;20.90;61.91
37852;BME280;23691;52.486;4.650;2023-07-13T04:52:54;101386.69;;;20.92;61.83
37852;BME280;23691;52.486;4.650;2023-07-13T04:55:20;101391.94;;;20.93;61.73
37852;BME280;23691;52.486;4.650;2023-07-13T04:57:46;101389.63;;;20.97;61.56
37852;BME280;23691;52.486;4.650;2023-07-13T05:00:24;101392.94;;;20.99;61.03
37852;BME280;23691;52.486;4.650;2023-07-13T05:02:54;101399.22;;;20.99;61.62
37852;BME280;23691;52.486;4.650;2023-07-13T05:05:24;101402.31;;;21.03;61.52
37852;BME280;23691;52.486;4.650;2023-07-13T05:07:50;101402.13;;;21.05;61.19
37852;BME280;23691;52.486;4.650;2023-07-13T05:10:17;101407.78;;;21.03;61.38
37852;BME280;23691;52.486;4.650;2023-07-13T05:12:43;101410.28;;;21.05;61.06
37852;BME280;23691;52.486;4.650;2023-07-13T05:15:14;101407.31;;;21.06;61.39
37852;BME280;23691;52.486;4.650;2023-07-13T05:17:42;101414.22;;;21.09;61.38
37852;BME280;23691;52.486;4.650;2023-07-13T05:20:10;101421.94;;;21.12;61.59
37852;BME280;23691;52.486;4.650;2023-07-13T05:22:35;101414.81;;;21.11;61.16
37852;BME280;23691;52.486;4.650;2023-07-13T05:25:04;101423.59;;;21.13;61.16
37852;BME280;23691;52.486;4.650;2023-07-13T05:27:30;101420.69;;;21.14;60.91
37852;BME280;23691;52.486;4.650;2023-07-13T05:30:02;101423.16;;;21.16;61.00
37852;BME280;23691;52.486;4.650;2023-07-13T05:32:31;101426.28;;;21.19;61.02
37852;BME280;23691;52.486;4.650;2023-07-13T05:34:57;101431.06;;;21.24;60.80
37852;BME280;23691;52.486;4.650;2023-07-13T05:37:22;101438.34;;;21.30;60.55
37852;BME280;23691;52.486;4.650;2023-07-13T05:39:53;101429.72;;;21.33;60.33
37852;BME280;23691;52.486;4.650;2023-07-13T05:42:18;101439.56;;;21.34;60.34
37852;BME280;23691;52.486;4.650;2023-07-13T05:44:44;101437.47;;;21.36;60.44
37852;BME280;23691;52.486;4.650;2023-07-13T05:47:11;101432.59;;;21.38;60.37
37852;BME280;23691;52.486;4.650;2023-07-13T05:49:39;101440.97;;;21.43;60.16
37852;BME280;23691;52.486;4.650;2023-07-13T05:52:06;101444.91;;;21.48;60.03
37852;BME280;23691;52.486;4.650;2023-07-13T05:54:31;101452.63;;;21.51;60.00
37852;BME280;23691;52.486;4.650;2023-07-13T05:56:56;101448.41;;;21.55;59.56
37852;BME280;23691;52.486;4.650;2023-07-13T05:59:22;101459.94;;;21.57;59.39
37852;BME280;23691;52.486;4.650;2023-07-13T06:01:48;101458.66;;;21.59;59.12
37852;BME280;23691;52.486;4.650;2023-07-13T06:04:13;101460.31;;;21.60;59.12
37852;BME280;23691;52.486;4.650;2023-07-13T06:06:39;101458.81;;;21.64;58.92
37852;BME280;23691;52.486;4.650;2023-07-13T06:09:04;101468.59;;;21.72;58.53
37852;BME280;23691;52.486;4.650;2023-07-13T06:11:29;101468.06;;;21.82;58.26
37852;BME280;23691;52.486;4.650;2023-07-13T06:13:55;101461.75;;;21.88;58.01
37852;BME280;23691;52.486;4.650;2023-07-13T06:16:23;101468.34;;;21.99;57.52
37852;BME280;23691;52.486;4.650;2023-07-13T06:18:49;101467.50;;;21.98;57.92
37852;BME280;23691;52.486;4.650;2023-07-13T06:21:19;101478.78;;;22.02;57.46
37852;BME280;23691;52.486;4.650;2023-07-13T06:23:46;101482.31;;;22.02;57.45
37852;BME280;23691;52.486;4.650;2023-07-13T06:26:13;101477.94;;;22.01;57.15
37852;BME280;23691;52.486;4.650;2023-07-13T06:28:38;101486.19;;;21.95;57.17
37852;BME280;23691;52.486;4.650;2023-07-13T06:31:06;101488.75;;;21.90;57.11
37852;BME280;23691;52.486;4.650;2023-07-13T06:33:33;101488.22;;;21.81;57.08
37852;BME280;23691;52.486;4.650;2023-07-13T06:35:58;101485.69;;;21.79;57.37
37852;BME280;23691;52.486;4.650;2023-07-13T06:38:24;101494.47;;;21.81;57.27
37852;BME280;23691;52.486;4.650;2023-07-13T06:40:49;101504.09;;;21.84;56.91
37852;BME280;23691;52.486;4.650;2023-07-13T06:43:15;101509.53;;;21.84;57.20
37852;BME280;23691;52.486;4.650;2023-07-13T06:45:43;101502.34;;;21.90;57.37
37852;BME280;23691;52.486;4.650;2023-07-13T06:48:11;101513.72;;;21.86;57.29
37852;BME280;23691;52.486;4.650;2023-07-13T06:50:36;101520.66;;;21.82;57.18
37852;BME280;23691;52.486;4.650;2023-07-13T06:53:02;101518.38;;;21.79;57.43
37852;BME280;23691;52.486;4.650;2023-07-13T06:55:27;101521.56;;;21.76;57.93
37852;BME280;23691;52.486;4.650;2023-07-13T06:57:53;101519.88;;;21.75;58.21
37852;BME280;23691;52.486;4.650;2023-07-13T07:00:18;101518.84;;;21.76;58.24
37852;BME280;23691;52.486;4.650;2023-07-13T07:02:44;101533.06;;;21.78;58.36
37852;BME280;23691;52.486;4.650;2023-07-13T07:05:09;101529.28;;;21.79;58.48
37852;BME280;23691;52.486;4.650;2023-07-13T07:07:35;101534.22;;;21.89;57.86
37852;BME280;23691;52.486;4.650;2023-07-13T07:10:01;101532.88;;;21.98;57.23
37852;BME280;23691;52.486;4.650;2023-07-13T07:12:26;101535.69;;;22.10;57.41
37852;BME280;23691;52.486;4.650;2023-07-13T07:14:52;101535.81;;;22.22;56.74
37852;BME280;23691;52.486;4.650;2023-07-13T07:17:17;101535.00;;;22.21;56.80
37852;BME280;23691;52.486;4.650;2023-07-13T07:19:42;101531.44;;;22.21;56.79
37852;BME280;23691;52.486;4.650;2023-07-13T07:22:08;101546.06;;;22.26;56.98
37852;BME280;23691;52.486;4.650;2023-07-13T07:24:33;101546.81;;;22.34;56.72
37852;BME280;23691;52.486;4.650;2023-07-13T07:26:59;101547.75;;;22.46;55.98
37852;BME280;23691;52.486;4.650;2023-07-13T07:29:24;101547.44;;;22.72;55.32
37852;BME280;23691;52.486;4.650;2023-07-13T07:31:54;101542.66;;;23.05;54.21
37852;BME280;23691;52.486;4.650;2023-07-13T07:34:19;101544.28;;;23.24;53.68
37852;BME280;23691;52.486;4.650;2023-07-13T07:36:45;101540.91;;;23.41;53.50
37852;BME280;23691;52.486;4.650;2023-07-13T07:39:10;101539.72;;;23.60;53.38
37852;BME280;23691;52.486;4.650;2023-07-13T07:41:37;101549.34;;;23.63;53.27
37852;BME280;23691;52.486;4.650;2023-07-13T07:44:02;101528.94;;;23.65;53.00
37852;BME280;23691;52.486;4.650;2023-07-13T07:46:28;101543.31;;;23.61;52.91
37852;BME280;23691;52.486;4.650;2023-07-13T07:48:55;101529.41;;;23.62;52.73
37852;BME280;23691;52.486;4.650;2023-07-13T07:51:21;101535.84;;;23.68;52.29
37852;BME280;23691;52.486;4.650;2023-07-13T07:53:47;101547.50;;;23.75;51.87
37852;BME280;23691;52.486;4.650;2023-07-13T07:56:12;101545.16;;;23.78;51.41
37852;BME280;23691;52.486;4.650;2023-07-13T07:58:38;101535.16;;;23.84;51.21
37852;BME280;23691;52.486;4.650;2023-07-13T08:01:05;101536.59;;;23.98;50.85
37852;BME280;23691;52.486;4.650;2023-07-13T08:03:31;101526.72;;;24.09;50.27
37852;BME280;23691;52.486;4.650;2023-07-13T08:05:56;101532.09;;;24.16;49.70
37852;BME280;23691;52.486;4.650;2023-07-13T08:08:22;101543.72;;;24.35;49.58
37852;BME280;23691;52.486;4.650;2023-07-13T08:10:47;101540.75;;;24.48;49.08
37852;BME280;23691;52.486;4.650;2023-07-13T08:13:13;101539.66;;;24.61;49.11
37852;BME280;23691;52.486;4.650;2023-07-13T08:15:38;101547.91;;;24.90;49.12
37852;BME280;23691;52.486;4.650;2023-07-13T08:18:04;101558.03;;;25.30;48.19
37852;BME280;23691;52.486;4.650;2023-07-13T08:20:29;101555.75;;;25.55;47.40
37852;BME280;23691;52.486;4.650;2023-07-13T08:22:54;101561.41;;;25.65;47.11
37852;BME280;23691;52.486;4.650;2023-07-13T08:25:20;101546.22;;;25.75;47.11
37852;BME280;23691;52.486;4.650;2023-07-13T08:27:47;101547.72;;;25.82;47.15
37852;BME280;23691;52.486;4.650;2023-07-13T08:30:12;101550.81;;;25.86;46.86
37852;BME280;23691;52.486;4.650;2023-07-13T08:32:38;101555.78;;;25.89;46.22
37852;BME280;23691;52.486;4.650;2023-07-13T08:35:22;101555.66;;;25.84;46.05
37852;BME280;23691;52.486;4.650;2023-07-13T08:37:48;101555.63;;;25.96;45.83
37852;BME280;23691;52.486;4.650;2023-07-13T08:40:14;101559.94;;;25.91;45.45
37852;BME280;23691;52.486;4.650;2023-07-13T08:42:45;101564.47;;;25.69;45.76
37852;BME280;23691;52.486;4.650;2023-07-13T08:45:22;101564.28;;;25.42;45.76
37852;BME280;23691;52.486;4.650;2023-07-13T08:48:08;101566.22;;;25.30;46.23
37852;BME280;23691;52.486;4.650;2023-07-13T08:51:04;101559.84;;;25.24;46.27
37852;BME280;23691;52.486;4.650;2023-07-13T08:53:36;101564.13;;;25.20;46.32
37852;BME280;23691;52.486;4.650;2023-07-13T08:56:05;101571.06;;;25.11;46.57
37852;BME280;23691;52.486;4.650;2023-07-13T08:58:33;101561.44;;;25.08;46.64
37852;BME280;23691;52.486;4.650;2023-07-13T09:03:46;101581.16;;;25.10;46.49
37852;BME280;23691;52.486;4.650;2023-07-13T09:06:17;101575.09;;;25.20;46.40
37852;BME280;23691;52.486;4.650;2023-07-13T09:11:36;101575.78;;;25.27;46.27
37852;BME280;23691;52.486;4.650;2023-07-13T09:14:25;101574.03;;;25.21;46.72
37852;BME280;23691;52.486;4.650;2023-07-13T09:16:56;101578.50;;;25.27;46.35
37852;BME280;23691;52.486;4.650;2023-07-13T09:19:27;101576.47;;;25.34;46.42
37852;BME280;23691;52.486;4.650;2023-07-13T09:21:55;101570.34;;;25.44;46.89
37852;BME280;23691;52.486;4.650;2023-07-13T09:24:29;101586.69;;;25.39;46.71
37852;BME280;23691;52.486;4.650;2023-07-13T09:27:08;101576.31;;;25.41;46.80
37852;BME280;23691;52.486;4.650;2023-07-13T09:29:37;101575.91;;;25.49;47.06
37852;BME280;23691;52.486;4.650;2023-07-13T09:32:12;101577.00;;;25.48;47.13
37852;BME280;23691;52.486;4.650;2023-07-13T09:34:39;101586.78;;;25.44;47.46
37852;BME280;23691;52.486;4.650;2023-07-13T09:37:05;101588.44;;;25.45;47.58
37852;BME280;23691;52.486;4.650;2023-07-13T09:39:39;101596.22;;;25.36;47.55
37852;BME280;23691;52.486;4.650;2023-07-13T09:42:13;101584.63;;;25.46;47.26
37852;BME280;23691;52.486;4.650;2023-07-13T09:44:58;101598.22;;;25.41;47.17
37852;BME280;23691;52.486;4.650;2023-07-13T09:47:31;101592.97;;;25.39;47.27
37852;BME280;23691;52.486;4.650;2023-07-13T09:50:02;101584.16;;;25.37;47.41
37852;BME280;23691;52.486;4.650;2023-07-13T09:52:48;101599.78;;;25.37;47.10
37852;BME280;23691;52.486;4.650;2023-07-13T09:55:32;101602.03;;;25.40;46.82
37852;BME280;23691;52.486;4.650;2023-07-13T09:58:03;101604.28;;;25.43;46.83
37852;BME280;23691;52.486;4.650;2023-07-13T10:00:30;101603.63;;;25.36;47.27
37852;BME280;23691;52.486;4.650;2023-07-13T10:03:09;101608.63;;;25.27;47.43
37852;BME280;23691;52.486;4.650;2023-07-13T10:05:42;101615.78;;;25.28;46.99
37852;BME280;23691;52.486;4.650;2023-07-13T10:08:28;101618.72;;;25.38;46.76
37852;BME280;23691;52.486;4.650;2023-07-13T10:11:10;101618.63;;;25.33;47.32
37852;BME280;23691;52.486;4.650;2023-07-13T10:13:37;101627.91;;;25.32;47.55
37852;BME280;23691;52.486;4.650;2023-07-13T10:16:07;101633.84;;;25.41;47.36
37852;BME280;23691;52.486;4.650;2023-07-13T10:19:04;101636.53;;;25.53;47.46
37852;BME280;23691;52.486;4.650;2023-07-13T10:21:35;101635.75;;;25.57;47.45
37852;BME280;23691;52.486;4.650;2023-07-13T10:24:12;101637.56;;;25.80;46.87
37852;BME280;23691;52.486;4.650;2023-07-13T10:26:47;101644.00;;;25.86;46.82
37852;BME280;23691;52.486;4.650;2023-07-13T10:29:14;101644.44;;;25.95;46.62
37852;BME280;23691;52.486;4.650;2023-07-13T10:31:45;101642.69;;;26.05;46.14
37852;BME280;23691;52.486;4.650;2023-07-13T10:34:11;101650.84;;;26.17;45.92
37852;BME280;23691;52.486;4.650;2023-07-13T10:36:44;101650.31;;;26.20;45.82
37852;BME280;23691;52.486;4.650;2023-07-13T10:39:36;101648.09;;;26.17;46.05
37852;BME280;23691;52.486;4.650;2023-07-13T10:42:05;101642.59;;;26.17;45.71
37852;BME280;23691;52.486;4.650;2023-07-13T10:44:33;101660.41;;;26.15;45.62
37852;BME280;23691;52.486;4.650;2023-07-13T10:47:01;101658.63;;;26.08;45.95
37852;BME280;23691;52.486;4.650;2023-07-13T10:49:29;101663.22;;;26.03;45.59
37852;BME280;23691;52.486;4.650;2023-07-13T10:51:56;101661.78;;;26.00;45.86
37852;BME280;23691;52.486;4.650;2023-07-13T10:57:17;101674.03;;;26.09;46.20
37852;BME280;23691;52.486;4.650;2023-07-13T10:59:49;101673.53;;;26.12;46.31
37852;BME280;23691;52.486;4.650;2023-07-13T11:02:34;101676.69;;;26.21;46.31
37852;BME280;23691;52.486;4.650;2023-07-13T11:05:17;101677.91;;;26.30;46.13
37852;BME280;23691;52.486;4.650;2023-07-13T11:08:13;101678.00;;;26.35;46.33
37852;BME280;23691;52.486;4.650;2023-07-13T11:10:54;101669.09;;;26.62;45.36
37852;BME280;23691;52.486;4.650;2023-07-13T11:18:50;101676.75;;;26.60;43.47
37852;BME280;23691;52.486;4.650;2023-07-13T11:21:19;101674.66;;;26.50;43.37
37852;BME280;23691;52.486;4.650;2023-07-13T11:23:52;101683.41;;;26.47;43.43
37852;BME280;23691;52.486;4.650;2023-07-13T11:26:41;101679.25;;;26.45;42.99
37852;BME280;23691;52.486;4.650;2023-07-13T11:29:14;101683.84;;;26.39;43.20
37852;BME280;23691;52.486;4.650;2023-07-13T11:31:55;101687.09;;;26.36;43.22
37852;BME280;23691;52.486;4.650;2023-07-13T11:34:30;101691.03;;;26.45;43.46
37852;BME280;23691;52.486;4.650;2023-07-13T11:36:58;101692.31;;;26.54;43.31
37852;BME280;23691;52.486;4.650;2023-07-13T11:39:33;101693.06;;;26.67;43.15
37852;BME280;23691;52.486;4.650;2023-07-13T11:42:03;101687.31;;;26.51;43.67
37852;BME280;23691;52.486;4.650;2023-07-13T11:44:33;101682.75;;;26.57;43.54
37852;BME280;23691;52.486;4.650;2023-07-13T11:47:11;101689.72;;;26.65;43.57
37852;BME280;23691;52.486;4.650;2023-07-13T11:49:45;101685.66;;;26.67;43.55
37852;BME280;23691;52.486;4.650;2023-07-13T11:52:18;101687.88;;;26.70;42.61
37852;BME280;23691;52.486;4.650;2023-07-13T11:54:55;101695.78;;;26.84;42.84
37852;BME280;23691;52.486;4.650;2023-07-13T11:57:36;101700.16;;;26.85;42.32
37852;BME280;23691;52.486;4.650;2023-07-13T12:00:13;101698.53;;;26.84;42.52
37852;BME280;23691;52.486;4.650;2023-07-13T12:02:47;101704.31;;;26.87;42.31
37852;BME280;23691;52.486;4.650;2023-07-13T12:05:16;101710.41;;;26.89;41.98
37852;BME280;23691;52.486;4.650;2023-07-13T12:07:45;101700.31;;;26.95;41.98
37852;BME280;23691;52.486;4.650;2023-07-13T12:10:23;101699.78;;;27.15;42.00
37852;BME280;23691;52.486;4.650;2023-07-13T12:12:58;101694.03;;;27.38;41.81
37852;BME280;23691;52.486;4.650;2023-07-13T12:15:43;101697.25;;;27.30;42.23
37852;BME280;23691;52.486;4.650;2023-07-13T12:18:19;101693.13;;;27.55;41.84
37852;BME280;23691;52.486;4.650;2023-07-13T12:20:46;101697.03;;;27.86;41.48
37852;BME280;23691;52.486;4.650;2023-07-13T12:23:25;101685.16;;;28.08;41.09
37852;BME280;23691;52.486;4.650;2023-07-13T12:25:53;101706.91;;;28.09;41.43
37852;BME280;23691;52.486;4.650;2023-07-13T12:28:21;101705.09;;;27.93;41.76
37852;BME280;23691;52.486;4.650;2023-07-13T12:30:48;101698.41;;;27.83;42.14
37852;BME280;23691;52.486;4.650;2023-07-13T12:33:14;101697.06;;;28.13;41.33
37852;BME280;23691;52.486;4.650;2023-07-13T12:35:46;101695.84;;;28.36;41.14
37852;BME280;23691;52.486;4.650;2023-07-13T12:38:13;101701.25;;;28.53;40.71
37852;BME280;23691;52.486;4.650;2023-07-13T12:40:39;101699.06;;;28.55;40.84
37852;BME280;23691;52.486;4.650;2023-07-13T12:43:11;101690.38;;;28.79;40.52
37852;BME280;23691;52.486;4.650;2023-07-13T12:45:37;101704.22;;;28.89;39.97
37852;BME280;23691;52.486;4.650;2023-07-13T12:48:06;101698.22;;;29.02;39.97
37852;BME280;23691;52.486;4.650;2023-07-13T12:50:38;101696.03;;;29.04;39.18
37852;BME280;23691;52.486;4.650;2023-07-13T12:53:13;101690.28;;;29.06;39.07
37852;BME280;23691;52.486;4.650;2023-07-13T12:55:44;101698.88;;;29.15;39.71
37852;BME280;23691;52.486;4.650;2023-07-13T13:00:51;101707.75;;;29.32;38.62
37852;BME280;23691;52.486;4.650;2023-07-13T13:03:21;101705.00;;;29.27;39.17
37852;BME280;23691;52.486;4.650;2023-07-13T13:05:47;101712.53;;;28.99;39.22
37852;BME280;23691;52.486;4.650;2023-07-13T13:08:13;101704.47;;;29.35;39.00
37852;BME280;23691;52.486;4.650;2023-07-13T13:10:39;101711.38;;;29.43;38.90
37852;BME280;23691;52.486;4.650;2023-07-13T13:13:04;101707.78;;;29.37;39.20
37852;BME280;23691;52.486;4.650;2023-07-13T13:15:30;101699.72;;;29.20;39.06
37852;BME280;23691;52.486;4.650;2023-07-13T13:17:56;101708.88;;;28.88;39.68
37852;BME280;23691;52.486;4.650;2023-07-13T13:20:24;101704.50;;;28.87;39.27